Time;durP1;ratioP1;P1;durP2;ratioP2;P2;SDS_P1;SDS_P2;PMS_P1;PMS_P2;Temp;Humidity;BMP_temperature;BMP_pressure;BME280_temperature;BME280_humidity;BME280_pressure;Samples;Min_cycle;Max_cycle;Signal;HPM_P1;HPM_P2
2022/08/24 00:01:20;;;;;;;5.75;3.25;;;19.90;91.00;;;;;;4991355;28;20029;-74
2022/08/24 00:03:47;;;;;;;3.30;3.00;;;19.80;90.80;;;;;;4970299;28;20151;-75
2022/08/24 00:06:19;;;;;;;5.00;3.17;;;19.70;90.90;;;;;;4985872;28;20026;-74
2022/08/24 00:08:46;;;;;;;5.97;3.13;;;19.60;90.80;;;;;;4973079;28;20065;-75
2022/08/24 00:11:12;;;;;;;5.72;3.30;;;19.60;91.10;;;;;;4972911;28;20049;-74
2022/08/24 00:13:38;;;;;;;5.05;3.08;;;19.60;91.00;;;;;;4971911;28;20030;-75
2022/08/24 00:16:05;;;;;;;4.47;3.33;;;19.60;91.00;;;;;;4966691;28;20038;-75
2022/08/24 00:18:32;;;;;;;5.32;3.75;;;19.50;91.20;;;;;;4982009;28;20396;-75
2022/08/24 00:20:58;;;;;;;7.72;3.85;;;19.40;91.50;;;;;;4975027;28;20022;-75
2022/08/24 00:23:24;;;;;;;6.78;4.30;;;19.40;91.90;;;;;;4990556;28;20030;-75
2022/08/24 00:25:50;;;;;;;6.32;4.80;;;19.30;92.40;;;;;;4976884;28;20088;-75
2022/08/24 00:28:16;;;;;;;7.60;5.50;;;19.30;92.80;;;;;;4987726;28;20125;-75
2022/08/24 00:30:42;;;;;;;6.10;5.40;;;19.20;92.90;;;;;;5007972;23;20188;-76
2022/08/24 00:33:08;;;;;;;7.90;5.03;;;19.20;93.30;;;;;;5005166;28;20026;-75
2022/08/24 00:35:33;;;;;;;7.45;4.57;;;19.10;93.40;;;;;;4988562;28;20034;-75
2022/08/24 00:37:59;;;;;;;9.32;5.75;;;19.10;93.60;;;;;;4991527;28;20097;-75
2022/08/24 00:40:32;;;;;;;6.38;4.00;;;19.00;93.80;;;;;;4984272;28;20051;-75
2022/08/24 00:43:02;;;;;;;5.45;4.13;;;19.00;94.00;;;;;;4972739;28;20403;-75
2022/08/24 00:45:28;;;;;;;12.90;5.15;;;18.90;94.10;;;;;;4973433;28;20066;-75
2022/08/24 00:47:58;;;;;;;6.25;4.07;;;18.90;94.20;;;;;;4989652;28;20480;-75
2022/08/24 00:50:38;;;;;;;8.23;3.90;;;18.80;94.30;;;;;;4974041;28;20062;-75
2022/08/24 00:53:09;;;;;;;6.50;3.95;;;18.80;94.40;;;;;;4972295;28;20034;-75
2022/08/24 00:55:44;;;;;;;7.47;3.30;;;18.80;94.30;;;;;;4977969;28;20035;-76
2022/08/24 00:58:15;;;;;;;5.43;3.35;;;18.80;93.90;;;;;;4973878;28;20038;-76
2022/08/24 01:00:45;;;;;;;4.03;2.95;;;18.80;93.70;;;;;;4976081;28;20031;-76
2022/08/24 01:03:12;;;;;;;5.22;3.25;;;18.80;93.60;;;;;;4981174;28;20037;-76
2022/08/24 01:05:39;;;;;;;4.25;3.08;;;18.80;93.30;;;;;;4975361;28;20023;-76
2022/08/24 01:08:07;;;;;;;6.80;3.08;;;18.80;93.10;;;;;;4996427;28;20027;-76
2022/08/24 01:10:38;;;;;;;5.43;3.08;;;18.80;93.10;;;;;;4980753;28;20089;-76
2022/08/24 01:13:07;;;;;;;5.68;2.67;;;18.80;93.10;;;;;;4979559;28;20027;-76
2022/08/24 01:15:36;;;;;;;4.95;3.15;;;18.80;93.00;;;;;;4975016;28;20031;-76
2022/08/24 01:21:16;;;;;;;3.70;3.35;;;18.80;93.10;;;;;;4978432;28;20033;-76
2022/08/24 01:23:47;;;;;;;7.60;3.20;;;18.80;92.90;;;;;;4975962;28;20097;-75
2022/08/24 01:26:38;;;;;;;3.50;3.08;;;18.80;92.80;;;;;;4976188;28;20018;-74
2022/08/24 01:29:09;;;;;;;3.88;3.30;;;18.80;93.00;;;;;;4976022;28;20027;-75
2022/08/24 01:31:35;;;;;;;9.65;3.10;;;18.70;93.00;;;;;;4977657;28;20034;-75
2022/08/24 01:34:01;;;;;;;4.78;2.83;;;18.70;93.00;;;;;;4973379;28;20018;-75
2022/08/24 01:36:30;;;;;;;4.55;3.05;;;18.70;93.20;;;;;;4988782;28;20121;-76
2022/08/24 01:39:01;;;;;;;5.72;3.05;;;18.60;93.10;;;;;;4991450;28;20062;-76
2022/08/24 01:41:27;;;;;;;4.13;2.70;;;18.60;93.20;;;;;;4976471;28;20030;-76
2022/08/24 01:43:52;;;;;;;4.90;2.80;;;18.60;93.10;;;;;;4981865;28;20098;-76
2022/08/24 01:46:18;;;;;;;5.82;3.30;;;18.60;93.20;;;;;;4975742;28;20388;-76
2022/08/24 01:48:43;;;;;;;4.95;2.85;;;18.50;93.30;;;;;;4976873;28;20038;-75
2022/08/24 01:51:09;;;;;;;6.82;3.30;;;18.50;93.30;;;;;;4976048;28;20143;-75
2022/08/24 01:53:35;;;;;;;4.18;2.95;;;18.50;93.50;;;;;;4980030;28;20129;-75
2022/08/24 01:56:01;;;;;;;3.58;3.03;;;18.50;94.00;;;;;;4984941;28;20086;-75
2022/08/24 01:58:27;;;;;;;5.03;3.05;;;18.40;93.70;;;;;;4981298;28;20031;-75
2022/08/24 02:00:52;;;;;;;6.88;3.30;;;18.40;93.60;;;;;;4979521;28;20545;-77
2022/08/24 02:03:19;;;;;;;5.05;3.15;;;18.40;93.50;;;;;;4983489;28;20035;-76
2022/08/24 02:05:45;;;;;;;6.57;3.10;;;18.40;93.70;;;;;;4976115;28;20150;-74
2022/08/24 02:08:10;;;;;;;4.22;3.10;;;18.40;93.70;;;;;;4977252;28;20073;-75
2022/08/24 02:10:36;;;;;;;5.43;3.78;;;18.30;93.70;;;;;;4991144;28;20023;-74
2022/08/24 02:13:02;;;;;;;4.13;3.05;;;18.30;93.90;;;;;;4974926;28;20035;-75
2022/08/24 02:15:39;;;;;;;8.73;3.45;;;18.30;94.00;;;;;;4974738;28;20073;-75
2022/08/24 02:18:10;;;;;;;4.60;3.40;;;18.20;94.20;;;;;;4982529;28;20038;-75
2022/08/24 02:20:36;;;;;;;5.03;3.10;;;18.20;94.30;;;;;;4975438;28;20030;-75
2022/08/24 02:23:03;;;;;;;4.93;3.17;;;18.10;94.50;;;;;;4982225;28;20041;-74
2022/08/24 02:25:29;;;;;;;3.63;3.20;;;18.10;94.70;;;;;;4973459;28;20045;-75
2022/08/24 02:27:59;;;;;;;6.07;3.55;;;18.10;94.80;;;;;;4980987;28;20028;-75
2022/08/24 02:30:26;;;;;;;6.35;3.35;;;18.00;94.80;;;;;;4978279;28;20037;-75
2022/08/24 02:32:52;;;;;;;5.57;2.95;;;18.00;94.90;;;;;;4988637;28;20022;-75
2022/08/24 02:35:18;;;;;;;5.13;2.95;;;18.00;95.00;;;;;;4973516;28;20085;-75
2022/08/24 02:37:44;;;;;;;6.00;3.35;;;18.00;95.10;;;;;;4974770;28;20058;-75
2022/08/24 02:40:11;;;;;;;7.22;3.22;;;17.90;95.10;;;;;;4976465;28;20058;-75
2022/08/24 02:42:36;;;;;;;5.35;3.38;;;17.90;95.30;;;;;;4989833;28;20395;-76
2022/08/24 02:45:04;;;;;;;5.70;2.80;;;17.90;95.30;;;;;;4971796;28;20030;-76
2022/08/24 02:47:30;;;;;;;5.68;3.25;;;17.90;95.40;;;;;;4979777;28;20041;-76
2022/08/24 02:49:56;;;;;;;5.82;2.88;;;17.80;95.50;;;;;;4976329;28;20027;-76
2022/08/24 02:52:22;;;;;;;5.38;3.03;;;17.80;95.60;;;;;;4981890;28;20057;-76
2022/08/24 02:54:49;;;;;;;3.47;3.17;;;17.80;95.60;;;;;;4976950;28;20090;-75
2022/08/24 02:57:15;;;;;;;4.47;2.92;;;17.80;95.70;;;;;;4976378;28;20034;-76
2022/08/24 02:59:40;;;;;;;4.50;3.20;;;17.80;95.90;;;;;;4986057;28;20030;-75
2022/08/24 03:02:06;;;;;;;4.53;3.40;;;17.70;95.90;;;;;;4977373;28;20033;-76
2022/08/24 03:04:32;;;;;;;4.88;3.05;;;17.70;96.00;;;;;;4973481;28;20033;-77
2022/08/24 03:06:58;;;;;;;5.82;2.78;;;17.70;96.10;;;;;;4973184;28;20023;-75
2022/08/24 03:09:23;;;;;;;4.60;3.90;;;17.70;96.20;;;;;;4975977;28;20054;-75
2022/08/24 03:11:49;;;;;;;5.22;3.00;;;17.60;96.30;;;;;;4975664;28;20018;-76
2022/08/24 03:14:14;;;;;;;3.83;3.42;;;17.60;96.40;;;;;;4977311;28;20030;-76
2022/08/24 03:16:40;;;;;;;6.45;3.30;;;17.60;96.50;;;;;;4974000;28;20396;-75
2022/08/24 03:19:06;;;;;;;5.30;3.28;;;17.60;96.50;;;;;;4973883;28;20031;-75
2022/08/24 03:21:32;;;;;;;4.72;3.30;;;17.60;96.60;;;;;;4985967;28;20483;-75
2022/08/24 03:23:58;;;;;;;4.07;3.00;;;17.60;96.60;;;;;;4972790;28;20022;-75
2022/08/24 03:26:24;;;;;;;6.15;3.20;;;17.60;96.60;;;;;;4988610;28;20514;-75
2022/08/24 03:28:49;;;;;;;6.18;2.88;;;17.60;96.60;;;;;;4974360;28;20499;-75
2022/08/24 03:31:16;;;;;;;5.88;3.20;;;17.50;96.70;;;;;;4973673;28;20026;-75
2022/08/24 03:33:41;;;;;;;5.50;3.42;;;17.50;96.80;;;;;;4963362;28;20035;-74
2022/08/24 03:36:07;;;;;;;6.68;3.58;;;17.50;96.80;;;;;;4975471;28;20387;-74
2022/08/24 03:38:33;;;;;;;5.55;3.20;;;17.40;97.00;;;;;;4977792;28;20050;-74
2022/08/24 03:40:59;;;;;;;3.38;3.05;;;17.40;97.10;;;;;;4975051;28;20035;-74
2022/08/24 03:46:11;;;;;;;5.38;3.67;;;17.40;97.10;;;;;;4973021;28;20041;-74
2022/08/24 03:48:38;;;;;;;4.75;3.92;;;17.40;97.30;;;;;;4972468;28;20023;-74
2022/08/24 03:51:05;;;;;;;6.13;4.32;;;17.40;98.00;;;;;;4977710;28;20031;-74
2022/08/24 03:53:31;;;;;;;8.15;4.78;;;17.30;98.70;;;;;;4976458;28;20055;-75
2022/08/24 03:55:57;;;;;;;7.43;5.45;;;17.30;99.20;;;;;;4973897;28;20125;-75
2022/08/24 03:58:23;;;;;;;7.45;4.97;;;17.20;99.70;;;;;;4975864;28;20484;-74
2022/08/24 04:00:48;;;;;;;6.55;4.70;;;17.20;99.90;;;;;;4973126;28;20034;-75
2022/08/24 04:03:15;;;;;;;8.23;4.18;;;17.10;99.90;;;;;;4973425;28;20046;-76
2022/08/24 04:05:41;;;;;;;4.53;3.88;;;17.10;99.90;;;;;;4974263;28;20813;-75
2022/08/24 04:08:07;;;;;;;8.85;4.22;;;17.10;99.90;;;;;;4978153;28;20391;-76
2022/08/24 04:10:33;;;;;;;7.15;3.65;;;17.00;99.90;;;;;;4974526;28;20018;-75
2022/08/24 04:13:00;;;;;;;5.68;3.10;;;17.00;99.90;;;;;;4986973;28;20030;-76
2022/08/24 04:15:27;;;;;;;6.90;3.55;;;17.00;99.80;;;;;;4974123;28;20070;-75
2022/08/24 04:17:52;;;;;;;4.57;3.10;;;17.00;99.70;;;;;;4971485;28;20103;-76
2022/08/24 04:20:18;;;;;;;6.22;3.33;;;17.00;99.60;;;;;;4970449;28;20031;-76
2022/08/24 04:22:44;;;;;;;6.18;3.42;;;17.00;99.60;;;;;;4973736;28;20039;-74
2022/08/24 04:25:10;;;;;;;5.00;3.15;;;17.00;99.50;;;;;;4972187;28;20031;-74
2022/08/24 04:27:38;;;;;;;6.15;3.40;;;17.00;99.40;;;;;;4976967;28;20021;-75
2022/08/24 04:30:05;;;;;;;5.57;3.33;;;17.00;99.40;;;;;;4990508;28;20427;-75
2022/08/24 04:32:31;;;;;;;8.65;3.38;;;17.00;99.40;;;;;;4972904;28;20051;-75
2022/08/24 04:34:58;;;;;;;5.13;3.25;;;17.00;99.40;;;;;;4972102;28;20023;-75
2022/08/24 04:37:24;;;;;;;4.70;3.22;;;17.00;99.50;;;;;;4971114;28;20019;-75
2022/08/24 04:39:49;;;;;;;6.47;3.15;;;17.00;99.40;;;;;;4968530;28;20031;-75
2022/08/24 04:42:16;;;;;;;6.60;3.00;;;16.90;99.40;;;;;;4976414;28;20426;-75
2022/08/24 04:44:42;;;;;;;6.18;3.30;;;16.90;99.40;;;;;;4973348;28;20468;-75
2022/08/24 04:47:08;;;;;;;4.10;3.30;;;16.90;99.40;;;;;;4975083;28;20061;-75
2022/08/24 04:49:35;;;;;;;4.30;3.53;;;16.90;99.40;;;;;;4973404;28;20019;-75
2022/08/24 04:52:01;;;;;;;4.88;3.42;;;17.00;99.40;;;;;;4974184;28;20479;-74
2022/08/24 04:54:26;;;;;;;8.52;3.90;;;17.00;99.40;;;;;;4973881;28;20034;-74
2022/08/24 04:56:52;;;;;;;8.82;4.50;;;17.00;99.90;;;;;;4980961;28;20035;-74
2022/08/24 04:59:18;;;;;;;9.48;4.70;;;16.90;99.90;;;;;;4972526;28;20580;-74
2022/08/24 05:01:44;;;;;;;9.38;5.38;;;17.00;99.90;;;;;;4969214;28;20046;-75
2022/08/24 05:04:09;;;;;;;7.88;5.20;;;17.00;99.90;;;;;;4973970;28;20038;-75
2022/08/24 05:06:35;;;;;;;8.88;5.68;;;16.90;99.90;;;;;;4970314;28;20042;-76
2022/08/24 05:09:03;;;;;;;10.05;6.05;;;17.00;99.90;;;;;;4969303;28;20164;-76
2022/08/24 05:11:29;;;;;;;6.93;4.63;;;17.00;99.90;;;;;;4970398;28;20415;-76
2022/08/24 05:13:56;;;;;;;5.40;4.55;;;17.00;99.90;;;;;;4973318;28;20015;-76
2022/08/24 05:16:23;;;;;;;7.53;4.85;;;17.00;99.90;;;;;;4969963;28;20105;-75
2022/08/24 05:18:49;;;;;;;4.82;4.25;;;17.00;99.90;;;;;;4968586;28;20042;-77
2022/08/24 05:21:19;;;;;;;8.27;4.80;;;17.10;99.90;;;;;;4964859;28;20060;-75
2022/08/24 05:23:45;;;;;;;7.78;4.53;;;17.20;99.90;;;;;;4971978;28;20514;-75
2022/08/24 05:26:14;;;;;;;9.10;4.78;;;17.30;99.90;;;;;;4970427;28;20026;-74
2022/08/24 05:28:40;;;;;;;7.35;4.70;;;17.40;99.90;;;;;;4970875;28;20077;-75
2022/08/24 05:31:08;;;;;;;7.55;4.45;;;17.60;99.90;;;;;;4970439;28;20557;-75
2022/08/24 05:33:34;;;;;;;7.80;4.55;;;17.60;99.90;;;;;;4968730;28;20196;-74
2022/08/24 05:36:00;;;;;;;12.20;4.70;;;17.70;99.90;;;;;;4982700;28;20046;-75
2022/08/24 05:38:26;;;;;;;9.10;4.68;;;17.80;99.90;;;;;;4987947;28;20023;-76
2022/08/24 05:40:51;;;;;;;6.70;4.68;;;17.90;99.90;;;;;;4972025;28;20026;-74
2022/08/24 05:43:17;;;;;;;9.70;4.80;;;18.00;99.90;;;;;;4978436;28;20027;-74
2022/08/24 05:45:43;;;;;;;6.85;4.78;;;18.00;99.90;;;;;;4994435;28;20026;-75
2022/08/24 05:48:09;;;;;;;6.32;4.20;;;18.10;99.90;;;;;;4967080;28;20117;-75
2022/08/24 05:50:34;;;;;;;11.75;4.82;;;18.20;99.90;;;;;;4969681;28;20109;-74
2022/08/24 05:53:00;;;;;;;6.35;4.40;;;18.20;99.90;;;;;;4978314;28;20519;-75
2022/08/24 05:55:25;;;;;;;7.75;3.90;;;18.30;99.80;;;;;;4973298;28;20118;-75
2022/08/24 05:57:51;;;;;;;6.70;4.18;;;18.40;99.60;;;;;;4968086;28;20058;-75
2022/08/24 06:00:17;;;;;;;17.42;4.32;;;18.40;99.40;;;;;;4979002;28;20015;-75
2022/08/24 06:02:43;;;;;;;8.48;4.40;;;18.50;99.30;;;;;;4971180;28;20041;-76
2022/08/24 06:05:09;;;;;;;7.60;3.72;;;18.60;99.30;;;;;;4983717;28;20027;-69
2022/08/24 06:07:35;;;;;;;7.72;4.32;;;18.70;99.30;;;;;;4990725;28;20054;-69
2022/08/24 06:10:00;;;;;;;5.90;4.03;;;18.80;99.10;;;;;;4976193;28;20065;-69
2022/08/24 06:12:26;;;;;;;4.50;3.90;;;18.80;98.90;;;;;;4976066;28;20022;-69
2022/08/24 06:14:52;;;;;;;6.93;4.32;;;18.90;98.80;;;;;;4976201;28;20069;-69
2022/08/24 06:17:18;;;;;;;5.93;3.92;;;18.90;98.40;;;;;;4976116;28;20101;-69
2022/08/24 06:19:44;;;;;;;5.78;4.05;;;19.00;98.50;;;;;;4976066;28;20062;-69
2022/08/24 06:22:09;;;;;;;8.27;4.50;;;19.00;98.20;;;;;;4975848;28;20023;-68
2022/08/24 06:27:21;;;;;;;6.30;3.95;;;19.10;98.30;;;;;;4966907;28;20034;-69
2022/08/24 06:29:59;;;;;;;9.05;4.45;;;19.20;98.30;;;;;;4989997;23;20027;-80
2022/08/24 06:32:25;;;;;;;6.72;4.28;;;19.20;97.80;;;;;;4980514;28;20026;-82
2022/08/24 06:34:55;;;;;;;8.15;4.18;;;19.20;97.80;;;;;;4969355;28;20110;-82
2022/08/24 06:37:25;;;;;;;7.45;4.25;;;19.20;97.50;;;;;;4967011;28;20073;-81
2022/08/24 06:39:54;;;;;;;9.73;4.72;;;19.30;97.60;;;;;;4948512;28;20031;-80
2022/08/24 06:42:20;;;;;;;8.95;4.63;;;19.30;97.50;;;;;;4951534;28;20058;-81
2022/08/24 06:44:45;;;;;;;8.10;4.93;;;19.30;97.30;;;;;;4965789;28;20278;-80
2022/08/24 06:47:11;;;;;;;6.75;4.80;;;19.30;97.50;;;;;;4951195;28;20031;-81
2022/08/24 06:49:37;;;;;;;7.03;4.53;;;19.40;97.50;;;;;;4949376;28;20031;-82
2022/08/24 06:52:06;;;;;;;8.65;4.55;;;19.40;97.40;;;;;;4947670;28;20150;-82
2022/08/24 06:54:32;;;;;;;7.78;4.38;;;19.50;97.30;;;;;;4951796;28;20082;-82
2022/08/24 06:56:57;;;;;;;9.95;5.05;;;19.50;97.30;;;;;;4952082;28;20031;-82
2022/08/24 06:59:27;;;;;;;10.40;5.22;;;19.60;97.20;;;;;;4951271;28;20149;-82
2022/08/24 07:01:54;;;;;;;13.25;5.50;;;19.60;97.20;;;;;;4949558;28;20027;-82
2022/08/24 07:04:22;;;;;;;8.88;5.32;;;19.70;97.30;;;;;;4950680;28;20027;-82
2022/08/24 07:06:48;;;;;;;10.02;5.97;;;19.80;97.10;;;;;;4966019;28;24579;-82
2022/08/24 07:09:14;;;;;;;9.63;5.50;;;19.80;96.80;;;;;;4965911;28;20027;-80
2022/08/24 07:11:40;;;;;;;7.18;5.72;;;19.80;96.80;;;;;;4949681;28;20035;-89
2022/08/24 07:14:06;;;;;;;7.57;6.00;;;19.80;96.80;;;;;;4953632;28;20027;-89
2022/08/24 07:16:33;;;;;;;10.57;6.38;;;19.90;96.80;;;;;;4952411;28;20506;-87
2022/08/24 07:19:00;;;;;;;10.95;5.80;;;19.90;96.80;;;;;;4951026;28;20066;-90
2022/08/24 07:21:27;;;;;;;13.48;5.97;;;19.90;96.70;;;;;;4950443;28;20040;-91
2022/08/24 07:23:58;;;;;;;13.45;5.70;;;20.00;96.70;;;;;;4952059;28;20106;-90
2022/08/24 07:26:26;;;;;;;9.38;5.32;;;20.00;96.60;;;;;;4950721;28;20024;-90
2022/08/24 07:29:04;;;;;;;7.13;5.15;;;20.00;96.70;;;;;;4951830;28;20019;-90
2022/08/24 07:31:34;;;;;;;10.43;4.60;;;20.10;96.70;;;;;;4964437;28;20026;-86
2022/08/24 07:33:59;;;;;;;10.85;5.40;;;20.10;96.70;;;;;;4962964;28;20031;-85
2022/08/24 07:36:25;;;;;;;8.88;5.57;;;20.10;96.60;;;;;;4950315;28;20464;-90
2022/08/24 07:38:51;;;;;;;10.60;5.60;;;20.20;96.40;;;;;;4949643;28;20089;-89
2022/08/24 07:41:17;;;;;;;6.55;4.47;;;20.20;96.20;;;;;;4947448;28;20105;-90
2022/08/24 07:43:46;;;;;;;9.63;5.05;;;20.20;96.10;;;;;;4947598;28;20110;-89
2022/08/24 07:46:12;;;;;;;12.15;4.35;;;20.30;95.90;;;;;;4948415;28;20118;-90
2022/08/24 07:48:40;;;;;;;7.53;4.13;;;20.30;95.60;;;;;;4962905;28;20485;-90
2022/08/24 07:51:12;;;;;;;6.75;3.97;;;20.40;95.40;;;;;;4950393;28;20027;-90
2022/08/24 07:53:38;;;;;;;5.80;4.38;;;20.40;94.80;;;;;;4969016;28;20472;-90
2022/08/24 07:56:03;;;;;;;9.20;4.47;;;20.50;94.80;;;;;;5008795;23;20026;-74
2022/08/24 07:58:30;;;;;;;10.25;5.10;;;20.60;94.80;;;;;;4980630;28;20394;-74
2022/08/24 08:00:57;;;;;;;8.00;4.50;;;20.70;94.80;;;;;;4981273;28;20027;-74
2022/08/24 08:03:25;;;;;;;10.63;4.47;;;20.80;94.80;;;;;;4973378;28;20089;-75
2022/08/24 08:05:59;;;;;;;7.63;4.68;;;21.00;94.70;;;;;;4970500;28;20499;-75
2022/08/24 08:08:26;;;;;;;9.57;4.43;;;21.10;94.40;;;;;;4968762;28;20027;-76
2022/08/24 08:10:52;;;;;;;15.02;4.75;;;21.10;94.20;;;;;;4967755;28;20040;-75
2022/08/24 08:13:18;;;;;;;9.73;4.35;;;21.20;94.10;;;;;;4973130;28;20037;-74
2022/08/24 08:15:43;;;;;;;9.95;4.05;;;21.20;94.00;;;;;;4969257;28;20110;-75
2022/08/24 08:18:10;;;;;;;9.73;4.25;;;21.30;94.00;;;;;;4970211;28;20035;-75
2022/08/24 08:20:37;;;;;;;10.80;4.05;;;21.40;94.10;;;;;;4973009;28;20065;-74
2022/08/24 08:25:48;;;;;;;7.10;3.67;;;21.50;94.20;;;;;;4966274;28;20030;-74
2022/08/24 08:28:14;;;;;;;7.68;3.78;;;21.60;94.20;;;;;;4970540;28;20023;-75
2022/08/24 08:30:40;;;;;;;10.98;4.18;;;21.70;94.10;;;;;;4973721;28;20527;-75
2022/08/24 08:33:07;;;;;;;5.20;3.28;;;21.70;93.90;;;;;;4984809;28;20031;-74
2022/08/24 08:35:33;;;;;;;3.90;3.47;;;21.80;93.80;;;;;;4973494;28;20074;-75
2022/08/24 08:37:59;;;;;;;8.32;3.35;;;21.90;93.40;;;;;;4971302;28;20026;-74
2022/08/24 08:40:47;;;;;;;5.38;3.42;;;22.00;93.30;;;;;;4972425;28;20046;-75
2022/08/24 08:43:27;;;;;;;5.70;3.40;;;22.10;93.00;;;;;;4984439;28;20444;-74
2022/08/24 08:46:02;;;;;;;6.13;3.60;;;22.10;92.80;;;;;;4974527;28;20027;-74
2022/08/24 08:48:46;;;;;;;6.68;3.33;;;22.20;92.80;;;;;;4968855;28;20035;-74
2022/08/24 08:51:29;;;;;;;;;;;22.30;92.70;;;;;;4969966;28;20026;-75
2022/08/24 08:54:24;;;;;;;6.55;3.28;;;22.40;92.60;;;;;;4969776;28;20040;-74
2022/08/24 08:57:11;;;;;;;5.05;3.08;;;22.50;92.40;;;;;;4968475;28;20042;-75
2022/08/24 08:59:53;;;;;;;4.95;3.22;;;22.60;92.00;;;;;;4967318;28;20073;-74
2022/08/24 09:02:31;;;;;;;7.35;3.10;;;22.70;91.30;;;;;;4978053;28;20022;-74
2022/08/24 09:05:38;;;;;;;6.75;2.95;;;22.70;91.50;;;;;;4970472;28;20066;-70
2022/08/24 09:08:16;;;;;;;4.32;2.60;;;22.80;91.40;;;;;;4979364;28;20031;-74
2022/08/24 09:10:47;;;;;;;4.97;2.92;;;22.90;91.20;;;;;;4967586;28;20138;-72
2022/08/24 09:13:55;;;;;;;3.78;3.08;;;23.10;90.40;;;;;;4967040;28;20117;-74
2022/08/24 09:16:42;;;;;;;4.05;2.88;;;23.10;89.10;;;;;;4973520;28;20045;-74
2022/08/24 09:19:27;;;;;;;8.70;3.50;;;23.20;90.00;;;;;;4984952;28;20117;-75
2022/08/24 09:22:08;;;;;;;7.43;3.15;;;23.30;90.10;;;;;;4976320;28;20054;-75
2022/08/24 09:24:52;;;;;;;3.15;2.30;;;23.40;89.10;;;;;;4975861;28;20027;-72
2022/08/24 09:27:36;;;;;;;5.07;2.30;;;23.50;85.80;;;;;;4971595;28;20074;-73
2022/08/24 09:30:14;;;;;;;4.90;2.55;;;23.60;84.90;;;;;;4975869;28;20023;-75
2022/08/24 09:33:08;;;;;;;3.70;2.35;;;23.70;83.90;;;;;;4967478;28;20027;-74
2022/08/24 09:35:40;;;;;;;2.13;1.80;;;23.80;82.20;;;;;;4990606;28;20038;-75
2022/08/24 09:38:12;;;;;;;4.15;1.92;;;23.90;80.20;;;;;;4972886;28;20387;-75
2022/08/24 09:40:50;;;;;;;3.15;2.30;;;24.00;79.80;;;;;;4986525;28;20415;-75
2022/08/24 09:43:40;;;;;;;3.53;2.20;;;24.10;79.10;;;;;;4974114;28;20027;-75
2022/08/24 09:46:22;;;;;;;4.15;1.88;;;24.20;77.80;;;;;;4975505;28;20026;-75
2022/08/24 09:49:08;;;;;;;3.35;1.70;;;24.30;77.50;;;;;;4978772;28;20027;-76
2022/08/24 09:51:59;;;;;;;11.52;2.28;;;24.30;76.40;;;;;;4972231;28;20057;-75
2022/08/24 09:54:57;;;;;;;2.17;1.67;;;24.30;75.90;;;;;;4975174;28;20023;-75
2022/08/24 09:57:44;;;;;;;4.50;2.10;;;24.50;75.40;;;;;;4971574;28;20038;-76
2022/08/24 10:00:20;;;;;;;4.90;2.67;;;24.60;73.40;;;;;;4977739;28;20376;-75
2022/08/24 10:02:58;;;;;;;4.88;3.03;;;24.60;72.50;;;;;;4974901;28;20580;-75
2022/08/24 10:06:17;;;;;;;2.25;1.70;;;24.70;72.90;;;;;;4973407;28;20077;-75
2022/08/24 10:09:09;;;;;;;3.33;2.08;;;24.80;73.00;;;;;;4941623;29;20027;-75
2022/08/24 10:11:44;;;;;;;2.53;1.90;;;24.90;72.60;;;;;;4917395;29;20685;-75
2022/08/24 10:14:26;;;;;;;4.43;2.70;;;24.90;72.40;;;;;;4963767;28;20042;-77
2022/08/24 10:17:35;;;;;;;7.63;2.47;;;24.90;72.30;;;;;;4980281;28;20030;-76
2022/08/24 10:20:07;;;;;;;3.13;1.70;;;25.00;70.80;;;;;;4982494;28;20320;-74
2022/08/24 10:23:07;;;;;;;3.45;1.65;;;25.10;68.60;;;;;;4975684;28;20483;-75
2022/08/24 10:25:35;;;;;;;6.55;2.13;;;25.10;67.80;;;;;;4977812;28;20027;-75
2022/08/24 10:28:19;;;;;;;3.03;1.92;;;25.20;69.00;;;;;;4976004;28;20027;-75
2022/08/24 10:31:03;;;;;;;3.63;1.30;;;25.30;69.40;;;;;;4971843;28;20464;-75
2022/08/24 10:33:53;;;;;;;3.70;1.73;;;25.30;65.50;;;;;;4976273;28;20113;-75
2022/08/24 10:36:39;;;;;;;4.70;1.40;;;25.30;65.00;;;;;;4978963;28;20506;-74
2022/08/24 10:42:01;;;;;;;3.33;1.30;;;25.50;63.90;;;;;;4974310;28;20102;-75
2022/08/24 10:44:44;;;;;;;2.72;1.48;;;25.50;63.90;;;;;;4980441;28;20035;-74
2022/08/24 10:47:25;;;;;;;6.35;1.70;;;25.60;64.00;;;;;;4973025;28;20118;-75
2022/08/24 10:50:08;;;;;;;2.40;1.52;;;25.70;63.20;;;;;;4979877;28;20035;-76
2022/08/24 10:52:52;;;;;;;3.05;1.42;;;25.70;62.70;;;;;;4977301;28;20095;-75
2022/08/24 10:55:26;;;;;;;3.55;1.40;;;25.60;63.20;;;;;;4973800;28;20110;-75
2022/08/24 10:58:24;;;;;;;2.25;1.40;;;25.70;64.10;;;;;;4991835;28;20106;-74
2022/08/24 11:00:50;;;;;;;3.90;1.52;;;25.70;64.30;;;;;;4975523;28;20065;-75
2022/08/24 11:03:21;;;;;;;3.00;1.95;;;25.80;65.30;;;;;;4971351;28;20066;-75
2022/08/24 11:05:50;;;;;;;1.70;1.38;;;25.80;65.80;;;;;;4977241;28;20070;-75
2022/08/24 11:08:32;;;;;;;2.10;1.60;;;25.80;64.80;;;;;;4977030;28;20026;-76
2022/08/24 11:11:31;;;;;;;3.38;1.75;;;25.80;64.50;;;;;;4979587;28;20118;-75
2022/08/24 11:14:04;;;;;;;2.95;1.55;;;25.80;64.50;;;;;;4971934;28;20038;-75
2022/08/24 11:16:38;;;;;;;2.58;1.73;;;25.80;64.30;;;;;;4974414;28;20110;-76
2022/08/24 11:19:26;;;;;;;2.53;1.50;;;25.90;64.80;;;;;;4974334;28;20046;-75
2022/08/24 11:21:56;;;;;;;3.58;1.73;;;25.90;65.00;;;;;;4992786;28;20113;-74
2022/08/24 11:24:38;;;;;;;2.15;1.70;;;25.90;64.70;;;;;;4973229;28;20054;-75
2022/08/24 11:27:17;;;;;;;4.28;1.65;;;26.00;64.30;;;;;;4972928;28;20069;-74
2022/08/24 11:29:48;;;;;;;3.42;1.40;;;26.00;64.30;;;;;;4974026;28;20023;-75
2022/08/24 11:32:43;;;;;;;1.88;1.42;;;26.10;64.20;;;;;;4986289;28;20053;-74
2022/08/24 11:35:33;;;;;;;3.42;1.63;;;26.10;63.60;;;;;;4973616;28;20427;-75
2022/08/24 11:38:19;;;;;;;1.75;1.13;;;26.20;63.00;;;;;;4977062;28;20023;-75
2022/08/24 11:41:13;;;;;;;4.30;1.58;;;26.20;61.90;;;;;;4973702;28;20053;-75
2022/08/24 11:43:56;;;;;;;2.50;1.30;;;26.30;62.70;;;;;;4970792;28;20046;-75
2022/08/24 11:46:34;;;;;;;1.77;1.17;;;26.40;61.90;;;;;;4981080;28;20061;-74
2022/08/24 11:49:31;;;;;;;2.60;1.63;;;26.40;60.50;;;;;;4976548;28;20490;-74
2022/08/24 11:52:19;;;;;;;2.80;1.52;;;26.40;59.70;;;;;;4982677;28;20153;-76
2022/08/24 11:55:10;;;;;;;1.58;1.10;;;26.60;59.30;;;;;;4964475;28;20034;-76
2022/08/24 11:58:07;;;;;;;2.17;1.20;;;26.70;58.30;;;;;;4971228;28;20088;-75
2022/08/24 12:00:50;;;;;;;3.08;1.42;;;26.70;58.80;;;;;;4974198;28;20070;-75
2022/08/24 12:03:42;;;;;;;2.60;1.20;;;26.70;59.20;;;;;;4986697;28;20038;-75
2022/08/24 12:06:33;;;;;;;5.25;1.30;;;26.80;58.40;;;;;;4976149;28;20464;-74
2022/08/24 12:09:12;;;;;;;1.00;0.90;;;26.80;58.00;;;;;;4972962;28;20023;-74
2022/08/24 12:11:47;;;;;;;2.45;1.50;;;26.80;57.90;;;;;;4975532;28;20046;-77
2022/08/24 12:14:59;;;;;;;1.98;1.45;;;26.80;57.10;;;;;;4966099;28;20026;-76
2022/08/24 12:17:24;;;;;;;3.95;1.50;;;26.90;58.50;;;;;;4972150;28;20022;-75
2022/08/24 12:20:20;;;;;;;3.38;1.50;;;26.90;59.40;;;;;;4969945;28;20037;-74
2022/08/24 12:22:48;;;;;;;3.13;1.40;;;26.90;58.30;;;;;;4971246;28;20065;-76
2022/08/24 12:27:59;;;;;;;1.50;1.00;;;26.90;59.50;;;;;;4972189;28;20050;-76
2022/08/24 12:30:26;;;;;;;1.70;1.45;;;26.90;59.30;;;;;;4989223;28;20026;-75
2022/08/24 12:33:01;;;;;;;2.55;1.20;;;26.90;59.20;;;;;;4971573;28;20420;-75
2022/08/24 12:35:36;;;;;;;4.55;1.40;;;26.80;58.80;;;;;;4968707;28;20035;-74
2022/08/24 12:38:11;;;;;;;2.15;1.40;;;26.90;59.30;;;;;;4969943;28;20034;-78
2022/08/24 12:40:48;;;;;;;2.80;1.27;;;26.90;59.80;;;;;;4971879;28;20495;-75
2022/08/24 12:43:16;;;;;;;1.88;1.27;;;26.90;59.10;;;;;;4972236;28;20023;-73
2022/08/24 12:45:43;;;;;;;1.27;1.10;;;26.90;59.90;;;;;;4984563;28;20067;-77
2022/08/24 12:48:21;;;;;;;1.52;1.40;;;26.90;59.70;;;;;;4968578;28;20506;-77
2022/08/24 12:51:12;;;;;;;2.33;1.40;;;26.80;60.80;;;;;;4967928;28;20037;-76
2022/08/24 12:53:54;;;;;;;1.23;1.13;;;26.90;60.40;;;;;;4971589;28;20068;-77
2022/08/24 12:56:41;;;;;;;1.83;1.00;;;26.90;60.30;;;;;;4972991;28;20038;-77
2022/08/24 12:59:16;;;;;;;2.33;1.17;;;26.90;60.50;;;;;;4970453;28;20035;-77
2022/08/24 13:01:55;;;;;;;2.25;1.13;;;26.90;60.70;;;;;;4974619;28;20089;-76
2022/08/24 13:04:27;;;;;;;2.38;1.20;;;26.90;61.20;;;;;;4973898;28;20097;-74
2022/08/24 13:07:28;;;;;;;2.63;1.40;;;26.80;61.50;;;;;;4973290;28;20026;-75
2022/08/24 13:09:54;;;;;;;2.28;1.42;;;26.90;61.90;;;;;;4970786;28;20042;-75
2022/08/24 13:12:38;;;;;;;2.03;1.55;;;26.90;62.30;;;;;;4971760;28;20027;-75
2022/08/24 13:15:24;;;;;;;1.80;1.38;;;26.90;62.40;;;;;;4973147;28;20031;-74
2022/08/24 13:17:55;;;;;;;2.13;1.30;;;27.00;62.20;;;;;;4969297;28;20020;-73
2022/08/24 13:20:27;;;;;;;3.72;1.60;;;26.90;62.20;;;;;;4971176;28;20514;-73
2022/08/24 13:23:11;;;;;;;3.00;1.60;;;26.90;62.80;;;;;;4975997;28;20546;-73
2022/08/24 13:25:41;;;;;;;;;;;26.90;63.50;;;;;;4974129;28;20574;-74
2022/08/24 13:28:26;;;;;;;1.73;1.40;;;26.90;63.90;;;;;;4987182;28;19918;-73